createdAt,value
2022-09-20T00:01:24.195Z,12.19
2022-09-20T00:03:53.055Z,12.16
2022-09-20T00:06:21.509Z,12.14
2022-09-20T00:08:48.650Z,12.12
2022-09-20T00:11:18.397Z,12.08
2022-09-20T00:13:46.428Z,12.08
2022-09-20T00:16:24.273Z,12.04
2022-09-20T00:18:52.356Z,12.04
2022-09-20T00:21:21.861Z,12.03
2022-09-20T00:23:48.314Z,12.01
2022-09-20T00:26:14.778Z,12.00
2022-09-20T00:28:41.881Z,11.98
2022-09-20T00:31:08.276Z,11.97
2022-09-20T00:33:53.200Z,11.95
2022-09-20T00:36:19.589Z,11.93
2022-09-20T00:38:45.971Z,11.91
2022-09-20T00:41:12.464Z,11.90
2022-09-20T00:43:44.379Z,11.89
2022-09-20T00:46:20.797Z,11.85
2022-09-20T00:48:48.539Z,11.84
2022-09-20T00:51:18.051Z,11.82
2022-09-20T00:53:47.639Z,11.77
2022-09-20T00:56:17.774Z,11.75
2022-09-20T00:58:47.222Z,11.73
2022-09-20T01:01:13.750Z,11.70
2022-09-20T01:03:42.137Z,11.65
2022-09-20T01:06:12.081Z,11.63
2022-09-20T01:08:39.695Z,11.62
2022-09-20T01:11:06.169Z,11.60
2022-09-20T01:13:32.597Z,11.57
2022-09-20T01:16:00.406Z,11.57
2022-09-20T01:18:27.641Z,11.54
2022-09-20T01:20:54.634Z,11.54
2022-09-20T01:23:34.717Z,11.53
2022-09-20T01:26:27.069Z,11.49
2022-09-20T01:29:09.397Z,11.45
2022-09-20T01:31:43.364Z,11.45
2022-09-20T01:34:29.793Z,11.43
2022-09-20T01:37:05.345Z,11.40
2022-09-20T01:39:40.185Z,11.39
2022-09-20T01:42:09.445Z,11.39
2022-09-20T01:44:49.360Z,11.38
2022-09-20T01:47:37.425Z,11.38
2022-09-20T01:50:15.504Z,11.36
2022-09-20T01:53:01.407Z,11.34
2022-09-20T01:56:10.322Z,11.32
2022-09-20T01:59:23.549Z,11.31
2022-09-20T02:01:53.351Z,11.31
2022-09-20T02:04:59.845Z,11.32
2022-09-20T02:07:44.087Z,11.32
2022-09-20T02:10:35.399Z,11.35
2022-09-20T02:13:10.874Z,11.35
2022-09-20T02:15:57.020Z,11.36
2022-09-20T02:19:00.854Z,11.38
2022-09-20T02:21:54.834Z,11.38
2022-09-20T02:24:41.187Z,11.39
2022-09-20T02:27:24.308Z,11.42
2022-09-20T02:30:13.220Z,11.44
2022-09-20T02:33:25.089Z,11.45
2022-09-20T02:35:58.700Z,11.47
2022-09-20T02:38:57.526Z,11.49
2022-09-20T02:41:35.970Z,11.51
2022-09-20T02:44:28.589Z,11.51
2022-09-20T02:47:17.331Z,11.54
2022-09-20T02:50:19.942Z,11.54
2022-09-20T02:53:16.561Z,11.54
2022-09-20T02:56:03.690Z,11.54
2022-09-20T02:59:00.393Z,11.53
2022-09-20T03:01:39.693Z,11.53
2022-09-20T03:04:22.350Z,11.54
2022-09-20T03:07:00.993Z,11.53
2022-09-20T03:09:43.512Z,11.52
2022-09-20T03:12:34.238Z,11.54
2022-09-20T03:15:14.263Z,11.56
2022-09-20T03:17:50.606Z,11.56
2022-09-20T03:20:27.545Z,11.58
2022-09-20T03:23:10.796Z,11.60
2022-09-20T03:25:52.266Z,11.61
2022-09-20T03:28:38.648Z,11.58
2022-09-20T03:31:27.164Z,11.56
2022-09-20T03:34:09.682Z,11.53
2022-09-20T03:36:49.324Z,11.52
2022-09-20T03:39:39.934Z,11.50
2022-09-20T03:42:17.865Z,11.48
2022-09-20T03:45:17.761Z,11.49
2022-09-20T03:48:23.525Z,11.46
2022-09-20T03:51:18.754Z,11.43
2022-09-20T03:54:03.968Z,11.43
2022-09-20T03:56:52.047Z,11.43
2022-09-20T03:59:29.408Z,11.44
2022-09-20T04:02:07.194Z,11.42
2022-09-20T04:04:41.946Z,11.40
2022-09-20T04:07:26.427Z,11.37
2022-09-20T04:10:03.726Z,11.40
2022-09-20T04:12:40.953Z,11.40
2022-09-20T04:15:13.331Z,11.42
2022-09-20T04:17:52.517Z,11.42
2022-09-20T04:20:24.961Z,11.40
2022-09-20T04:22:52.287Z,11.41
2022-09-20T04:25:22.305Z,11.42
2022-09-20T04:27:56.482Z,11.42
2022-09-20T04:30:30.118Z,11.43
2022-09-20T04:33:01.695Z,11.44
2022-09-20T04:36:22.656Z,11.44
2022-09-20T04:39:17.874Z,11.43
2022-09-20T04:41:53.124Z,11.43
2022-09-20T04:44:45.915Z,11.44
2022-09-20T04:47:25.386Z,11.45
2022-09-20T04:50:30.277Z,11.48
2022-09-20T04:53:14.884Z,11.48
2022-09-20T04:56:10.438Z,11.49
2022-09-20T04:58:49.668Z,11.50
2022-09-20T05:01:35.620Z,11.51
2022-09-20T05:04:26.238Z,11.51
2022-09-20T05:06:58.840Z,11.49
2022-09-20T05:09:50.118Z,11.48
2022-09-20T05:12:35.507Z,11.45
2022-09-20T05:15:09.403Z,11.45
2022-09-20T05:17:38.796Z,11.44
2022-09-20T05:20:43.837Z,11.46
2022-09-20T05:23:36.379Z,11.46
2022-09-20T05:26:13.001Z,11.50
2022-09-20T05:28:49.648Z,11.55
2022-09-20T05:31:38.116Z,11.58
2022-09-20T05:34:15.092Z,11.58
2022-09-20T05:37:09.473Z,11.62
2022-09-20T05:39:37.013Z,11.58
2022-09-20T05:42:18.333Z,11.63
2022-09-20T05:45:07.808Z,11.66
2022-09-20T05:47:50.304Z,11.65
2022-09-20T05:50:36.375Z,11.69
2022-09-20T05:53:41.675Z,11.70
2022-09-20T05:56:32.814Z,11.69
2022-09-20T05:59:46.795Z,11.74
2022-09-20T06:02:42.557Z,11.77
2022-09-20T06:05:14.182Z,11.79
2022-09-20T06:07:52.463Z,11.82
2022-09-20T06:10:31.572Z,11.84
2022-09-20T06:13:43.029Z,11.86
2022-09-20T06:16:15.377Z,11.90
2022-09-20T06:19:16.813Z,11.91
2022-09-20T06:21:55.012Z,11.92
2022-09-20T06:24:39.372Z,11.90
2022-09-20T06:27:10.382Z,11.94
2022-09-20T06:29:40.860Z,11.95
2022-09-20T06:32:08.246Z,11.97
2022-09-20T06:34:35.179Z,11.99
2022-09-20T06:37:36.980Z,11.99
2022-09-20T06:40:48.851Z,12.00
2022-09-20T06:43:16.044Z,12.04
2022-09-20T06:45:42.810Z,12.03
2022-09-20T06:48:13.207Z,12.07
2022-09-20T06:50:40.006Z,12.15
2022-09-20T06:53:06.643Z,12.21
2022-09-20T06:55:37.467Z,12.14
2022-09-20T06:58:04.222Z,12.23
2022-09-20T07:00:30.700Z,12.28
2022-09-20T07:02:57.238Z,12.31
2022-09-20T07:05:24.409Z,12.34
2022-09-20T07:07:50.799Z,12.38
2022-09-20T07:10:17.229Z,12.41
2022-09-20T07:12:43.632Z,12.42
2022-09-20T07:15:10.217Z,12.44
2022-09-20T07:17:36.637Z,12.45
2022-09-20T07:20:03.442Z,12.45
2022-09-20T07:22:29.838Z,12.52
2022-09-20T07:24:56.257Z,12.55
2022-09-20T07:27:24.725Z,12.55
2022-09-20T07:29:54.024Z,12.54
2022-09-20T07:32:20.415Z,12.54
2022-09-20T07:34:47.002Z,12.53
2022-09-20T07:37:13.951Z,12.55
2022-09-20T07:39:40.361Z,12.62
2022-09-20T07:42:08.077Z,12.70
2022-09-20T07:44:34.469Z,12.77
2022-09-20T07:47:01.201Z,12.85
2022-09-20T07:49:30.264Z,12.92
2022-09-20T07:51:56.805Z,13.00
2022-09-20T07:54:23.223Z,12.95
2022-09-20T07:56:49.613Z,13.01
2022-09-20T07:59:16.250Z,13.12
2022-09-20T08:01:42.808Z,13.17
2022-09-20T08:04:09.938Z,13.17
2022-09-20T08:06:37.957Z,13.26
2022-09-20T08:09:08.981Z,13.31
2022-09-20T08:11:39.408Z,13.37
2022-09-20T08:14:07.522Z,13.37
2022-09-20T08:16:39.330Z,13.43
2022-09-20T08:19:05.789Z,13.47
2022-09-20T08:21:33.587Z,13.47
2022-09-20T08:24:00.201Z,13.46
2022-09-20T08:26:28.304Z,13.43
2022-09-20T08:28:56.738Z,13.47
2022-09-20T08:31:26.602Z,13.53
2022-09-20T08:33:54.157Z,13.56
2022-09-20T08:36:23.901Z,13.61
2022-09-20T08:41:57.519Z,13.51
2022-09-20T08:44:36.621Z,13.48
2022-09-20T08:47:05.568Z,13.48
2022-09-20T08:49:32.381Z,13.47
2022-09-20T08:51:59.199Z,13.50
2022-09-20T08:54:32.026Z,13.54
2022-09-20T08:57:05.261Z,13.52
2022-09-20T08:59:32.066Z,13.54
2022-09-20T09:01:59.814Z,13.55
2022-09-20T09:04:34.541Z,13.57
2022-09-20T09:07:01.023Z,13.56
2022-09-20T09:09:28.920Z,13.60
2022-09-20T09:11:56.973Z,13.60
2022-09-20T09:14:48.244Z,13.61
2022-09-20T09:17:32.733Z,13.68
2022-09-20T09:20:28.726Z,13.70
2022-09-20T09:23:08.894Z,13.82
2022-09-20T09:25:39.510Z,13.85
2022-09-20T09:28:08.877Z,13.88
2022-09-20T09:30:47.520Z,13.88
2022-09-20T09:33:20.002Z,13.96
2022-09-20T09:35:53.880Z,13.98
2022-09-20T09:38:24.147Z,13.99
2022-09-20T09:40:56.274Z,14.07
2022-09-20T09:43:28.521Z,14.16
2022-09-20T09:45:56.987Z,14.19
2022-09-20T09:48:30.566Z,14.25
2022-09-20T09:51:15.354Z,14.29
2022-09-20T09:53:42.725Z,14.38
2022-09-20T09:56:30.942Z,14.42
2022-09-20T09:59:30.685Z,14.44
2022-09-20T10:02:13.041Z,14.52
2022-09-20T10:04:51.657Z,14.49
2022-09-20T10:07:35.678Z,14.57
2022-09-20T10:10:41.351Z,14.61
2022-09-20T10:13:35.973Z,14.62
2022-09-20T10:16:32.335Z,14.70
2022-09-20T10:19:08.532Z,14.77
2022-09-20T10:21:52.225Z,14.79
2022-09-20T10:24:30.467Z,14.77
2022-09-20T10:26:59.801Z,14.81
2022-09-20T10:29:41.861Z,14.84
2022-09-20T10:32:40.189Z,14.86
2022-09-20T10:35:16.003Z,14.82
2022-09-20T10:38:04.007Z,14.90
2022-09-20T10:41:16.883Z,14.93
2022-09-20T10:44:05.362Z,14.96
2022-09-20T10:46:53.743Z,15.06
2022-09-20T10:49:50.382Z,15.06
2022-09-20T10:52:46.789Z,15.09
2022-09-20T10:55:31.891Z,15.11
2022-09-20T10:58:15.997Z,15.14
2022-09-20T11:01:02.179Z,15.24
2022-09-20T11:03:37.798Z,15.31
2022-09-20T11:06:15.957Z,15.33
2022-09-20T11:08:43.308Z,15.36
2022-09-20T11:11:12.406Z,15.40
2022-09-20T11:14:00.037Z,15.41
2022-09-20T11:16:38.269Z,15.41
2022-09-20T11:19:16.792Z,15.37
2022-09-20T11:21:48.365Z,15.32
2022-09-20T11:24:35.105Z,15.16
2022-09-20T11:27:14.466Z,15.16
2022-09-20T11:29:46.839Z,15.16
2022-09-20T11:32:27.436Z,15.15
2022-09-20T11:35:10.590Z,15.21
2022-09-20T11:37:43.585Z,15.18
2022-09-20T11:40:22.522Z,15.22
2022-09-20T11:42:50.076Z,15.30
2022-09-20T11:45:16.633Z,15.37
2022-09-20T11:47:55.704Z,15.39
2022-09-20T11:50:56.714Z,15.38
2022-09-20T11:53:37.016Z,15.36
2022-09-20T11:56:10.710Z,15.34
2022-09-20T11:58:48.169Z,15.44
2022-09-20T12:01:16.457Z,15.49
2022-09-20T12:03:50.652Z,15.48
2022-09-20T12:06:33.244Z,15.48
2022-09-20T12:09:03.522Z,15.52
2022-09-20T12:11:36.071Z,15.56
2022-09-20T12:14:07.217Z,15.63
2022-09-20T12:16:42.205Z,15.66
2022-09-20T12:19:36.290Z,15.70
2022-09-20T12:22:05.335Z,15.67
2022-09-20T12:24:34.131Z,15.74
2022-09-20T12:27:02.807Z,15.76
2022-09-20T12:29:32.910Z,15.75
2022-09-20T12:32:05.349Z,15.79
2022-09-20T12:34:36.508Z,15.83
2022-09-20T12:37:04.637Z,15.87
2022-09-20T12:39:36.024Z,15.83
2022-09-20T12:42:03.697Z,15.92
2022-09-20T12:44:32.222Z,16.00
2022-09-20T12:47:02.521Z,15.88
2022-09-20T12:49:51.533Z,15.91
2022-09-20T12:52:57.067Z,15.87
2022-09-20T12:55:33.050Z,15.80
2022-09-20T12:58:16.702Z,15.87
2022-09-20T13:01:04.417Z,15.91
2022-09-20T13:03:39.731Z,15.94
2022-09-20T13:06:06.202Z,15.96
2022-09-20T13:08:36.607Z,16.00
2022-09-20T13:11:13.542Z,16.05
2022-09-20T13:13:44.589Z,16.05
2022-09-20T13:16:20.047Z,16.02
2022-09-20T13:18:47.337Z,15.97
2022-09-20T13:21:13.796Z,16.04
2022-09-20T13:23:48.285Z,16.08
2022-09-20T13:26:16.030Z,16.08
2022-09-20T13:28:54.531Z,16.03
2022-09-20T13:31:20.904Z,16.00
2022-09-20T13:33:50.469Z,16.06
2022-09-20T13:36:24.684Z,16.11
2022-09-20T13:38:51.318Z,16.13
2022-09-20T13:41:17.974Z,16.17
2022-09-20T13:43:46.381Z,16.23
2022-09-20T13:46:32.928Z,16.25
2022-09-20T13:49:12.977Z,16.28
2022-09-20T13:51:39.465Z,16.33
2022-09-20T13:54:22.026Z,16.36
2022-09-20T13:56:49.474Z,16.37
2022-09-20T13:59:19.495Z,16.38
2022-09-20T14:01:51.653Z,16.39
2022-09-20T14:04:23.778Z,16.38
2022-09-20T14:06:51.904Z,16.40
2022-09-20T14:09:39.189Z,16.44
2022-09-20T14:12:06.159Z,16.47
2022-09-20T14:14:34.222Z,16.49
2022-09-20T14:17:01.862Z,16.49
2022-09-20T14:19:33.515Z,16.48
2022-09-20T14:22:04.465Z,16.53
2022-09-20T14:24:35.293Z,16.63
2022-09-20T14:27:15.011Z,16.64
2022-09-20T14:30:04.542Z,16.67
2022-09-20T14:32:50.703Z,16.66
2022-09-20T14:35:19.428Z,16.65
2022-09-20T14:37:48.904Z,16.65
2022-09-20T14:40:24.498Z,16.71
2022-09-20T14:43:00.633Z,16.70
2022-09-20T14:45:30.803Z,16.77
2022-09-20T14:48:06.871Z,16.78
2022-09-20T14:50:39.844Z,16.78
2022-09-20T14:53:21.479Z,16.76
2022-09-20T14:56:09.068Z,16.79
2022-09-20T14:59:09.326Z,16.85
2022-09-20T15:01:37.561Z,16.93
2022-09-20T15:04:09.468Z,17.02
2022-09-20T15:06:38.915Z,17.08
2022-09-20T15:09:05.568Z,17.10
2022-09-20T15:11:32.117Z,17.08
2022-09-20T15:13:58.510Z,17.09
2022-09-20T15:16:24.950Z,17.10
2022-09-20T15:18:51.396Z,17.16
2022-09-20T15:21:17.894Z,17.21
2022-09-20T15:23:44.317Z,17.23
2022-09-20T15:26:13.211Z,17.32
2022-09-20T15:28:40.238Z,17.33
2022-09-20T15:31:06.769Z,17.30
2022-09-20T15:33:33.505Z,17.23
2022-09-20T15:36:02.097Z,17.25
2022-09-20T15:38:28.638Z,17.23
2022-09-20T15:40:55.089Z,17.25
2022-09-20T15:43:24.235Z,17.19
2022-09-20T15:45:52.899Z,17.21
2022-09-20T15:48:21.790Z,17.17
2022-09-20T15:51:07.882Z,17.15
2022-09-20T15:53:36.870Z,17.08
2022-09-20T15:56:05.589Z,17.06
2022-09-20T15:58:36.106Z,17.02
2022-09-20T16:01:05.903Z,16.99
2022-09-20T16:03:32.717Z,16.95
2022-09-20T16:06:04.119Z,16.87
2022-09-20T16:08:36.326Z,16.83
2022-09-20T16:11:03.144Z,16.78
2022-09-20T16:13:29.949Z,16.75
2022-09-20T16:15:58.076Z,16.72
2022-09-20T16:18:43.486Z,16.64
2022-09-20T16:21:12.379Z,16.55
2022-09-20T16:23:39.870Z,16.53
2022-09-20T16:26:06.927Z,16.51
2022-09-20T16:28:33.362Z,16.47
2022-09-20T16:31:00.080Z,16.45
2022-09-20T16:33:26.525Z,16.42
2022-09-20T16:35:52.929Z,16.40
2022-09-20T16:38:19.352Z,16.38
2022-09-20T16:40:51.411Z,16.32
2022-09-20T16:43:23.934Z,16.24
2022-09-20T16:45:59.286Z,16.18
2022-09-20T16:48:31.189Z,16.14
2022-09-20T16:50:59.040Z,16.10
2022-09-20T16:53:26.326Z,16.06
2022-09-20T16:55:55.691Z,16.02
2022-09-20T16:58:29.725Z,15.94
2022-09-20T17:01:06.260Z,15.87
2022-09-20T17:03:34.102Z,15.84
2022-09-20T17:06:03.601Z,15.77
2022-09-20T17:08:30.003Z,15.72
2022-09-20T17:11:01.114Z,15.68
2022-09-20T17:13:32.898Z,15.63
2022-09-20T17:16:01.110Z,15.58
2022-09-20T17:18:27.686Z,15.52
2022-09-20T17:20:54.065Z,15.47
2022-09-20T17:23:21.048Z,15.43
2022-09-20T17:25:48.136Z,15.37
2022-09-20T17:28:14.706Z,15.32
2022-09-20T17:30:41.125Z,15.26
2022-09-20T17:33:07.517Z,15.22
2022-09-20T17:35:33.904Z,15.17
2022-09-20T17:38:00.302Z,15.14
2022-09-20T17:40:26.853Z,15.08
2022-09-20T17:42:55.161Z,15.05
2022-09-20T17:45:21.541Z,15.00
2022-09-20T17:47:47.928Z,14.96
2022-09-20T17:50:15.308Z,14.91
2022-09-20T17:52:42.180Z,14.87
2022-09-20T17:55:08.683Z,14.84
2022-09-20T17:57:35.081Z,14.79
2022-09-20T18:00:01.972Z,14.77
2022-09-20T18:02:28.377Z,14.74
2022-09-20T18:04:54.782Z,14.70
2022-09-20T18:07:21.170Z,14.68
2022-09-20T18:09:47.668Z,14.64
2022-09-20T18:12:18.889Z,14.58
2022-09-20T18:14:47.280Z,14.56
2022-09-20T18:17:13.698Z,14.51
2022-09-20T18:19:41.142Z,14.48
2022-09-20T18:22:07.546Z,14.45
2022-09-20T18:24:33.973Z,14.42
2022-09-20T18:27:04.463Z,14.38
2022-09-20T18:29:36.417Z,14.34
2022-09-20T18:32:02.933Z,14.31
2022-09-20T18:34:33.975Z,14.27
2022-09-20T18:37:01.331Z,14.22
2022-09-20T18:39:30.946Z,14.17
2022-09-20T18:41:57.386Z,14.15
2022-09-20T18:44:24.225Z,14.10
2022-09-20T18:46:54.900Z,14.06
2022-09-20T18:49:21.759Z,14.01
2022-09-20T18:51:48.824Z,13.96
2022-09-20T18:54:15.500Z,13.90
2022-09-20T18:56:43.952Z,13.88
2022-09-20T18:59:21.842Z,13.82
2022-09-20T19:01:55.819Z,13.78
2022-09-20T19:04:46.706Z,13.72
2022-09-20T19:07:16.036Z,13.69
2022-09-20T19:10:19.417Z,13.62
2022-09-20T19:13:05.016Z,13.60
2022-09-20T19:15:41.020Z,13.57
2022-09-20T19:18:25.650Z,13.55
2022-09-20T19:20:59.359Z,13.53
2022-09-20T19:24:05.850Z,13.50
2022-09-20T19:26:38.039Z,13.48
2022-09-20T19:29:16.674Z,13.46
2022-09-20T19:31:43.298Z,13.45
2022-09-20T19:34:18.176Z,13.42
2022-09-20T19:37:19.871Z,13.41
2022-09-20T19:40:14.047Z,13.38
2022-09-20T19:43:03.561Z,13.34
2022-09-20T19:45:57.756Z,13.31
2022-09-20T19:48:40.860Z,13.30
2022-09-20T19:51:11.612Z,13.27
2022-09-20T19:53:39.213Z,13.26
2022-09-20T19:56:27.755Z,13.25
2022-09-20T19:58:56.267Z,13.21
2022-09-20T20:01:24.171Z,13.19
2022-09-20T20:03:51.809Z,13.18
2022-09-20T20:06:38.952Z,13.16
2022-09-20T20:09:36.463Z,13.13
2022-09-20T20:12:02.743Z,13.11
2022-09-20T20:14:41.249Z,13.10
2022-09-20T20:17:33.445Z,13.08
2022-09-20T20:20:06.057Z,13.06
2022-09-20T20:23:04.433Z,13.01
2022-09-20T20:25:50.094Z,13.00
2022-09-20T20:28:16.470Z,12.99
2022-09-20T20:30:42.881Z,12.96
2022-09-20T20:33:16.059Z,12.92
2022-09-20T20:35:42.551Z,12.89
2022-09-20T20:38:10.552Z,12.87
2022-09-20T20:40:37.734Z,12.81
2022-09-20T20:43:06.089Z,12.79
2022-09-20T20:45:32.550Z,12.78
2022-09-20T20:47:59.239Z,12.77
2022-09-20T20:50:27.003Z,12.75
2022-09-20T20:52:54.204Z,12.75
2022-09-20T20:55:20.600Z,12.73
2022-09-20T20:57:57.983Z,12.72
2022-09-20T21:00:25.608Z,12.67
2022-09-20T21:02:59.741Z,12.63
2022-09-20T21:05:28.026Z,12.58
2022-09-20T21:07:54.948Z,12.50
2022-09-20T21:10:22.261Z,12.46
2022-09-20T21:12:50.303Z,12.40
2022-09-20T21:15:20.047Z,12.37
2022-09-20T21:17:53.123Z,12.36
2022-09-20T21:20:20.314Z,12.36
2022-09-20T21:22:46.731Z,12.37
2022-09-20T21:25:13.172Z,12.38
2022-09-20T21:27:39.606Z,12.38
2022-09-20T21:30:06.600Z,12.37
2022-09-20T21:32:32.982Z,12.38
2022-09-20T21:34:59.471Z,12.38
2022-09-20T21:37:25.893Z,12.40
2022-09-20T21:39:54.372Z,12.40
2022-09-20T21:42:20.768Z,12.41
2022-09-20T21:44:47.169Z,12.41
2022-09-20T21:47:20.476Z,12.41
2022-09-20T21:49:47.615Z,12.41
2022-09-20T21:52:14.470Z,12.41
2022-09-20T21:54:40.885Z,12.41
2022-09-20T21:57:07.382Z,12.40
2022-09-20T21:59:33.760Z,12.38
2022-09-20T22:02:00.170Z,12.37
2022-09-20T22:04:29.132Z,12.35
2022-09-20T22:06:55.581Z,12.35
2022-09-20T22:09:24.025Z,12.34
2022-09-20T22:11:50.676Z,12.34
2022-09-20T22:14:19.354Z,12.31
2022-09-20T22:16:46.994Z,12.30
2022-09-20T22:19:14.993Z,12.27
2022-09-20T22:21:46.727Z,12.24
2022-09-20T22:24:14.172Z,12.22
2022-09-20T22:26:45.725Z,12.19
2022-09-20T22:29:12.257Z,12.14
2022-09-20T22:31:46.732Z,12.11
2022-09-20T22:34:18.054Z,12.08
2022-09-20T22:36:44.494Z,12.04
2022-09-20T22:39:12.433Z,12.00
2022-09-20T22:41:40.972Z,11.98
2022-09-20T22:44:07.578Z,11.94
2022-09-20T22:46:34.385Z,11.91
2022-09-20T22:49:01.063Z,11.88
2022-09-20T22:51:33.558Z,11.86
2022-09-20T22:54:00.752Z,11.86
2022-09-20T22:56:31.098Z,11.84
2022-09-20T22:59:01.976Z,11.83
2022-09-20T23:01:47.799Z,11.80
2022-09-20T23:04:16.545Z,11.76
2022-09-20T23:06:44.930Z,11.74
2022-09-20T23:09:12.917Z,11.73
2022-09-20T23:11:41.863Z,11.70
2022-09-20T23:14:10.912Z,11.67
2022-09-20T23:16:37.704Z,11.64
2022-09-20T23:19:05.654Z,11.61
2022-09-20T23:21:32.809Z,11.59
2022-09-20T23:24:01.236Z,11.58
2022-09-20T23:26:29.810Z,11.54
2022-09-20T23:29:07.401Z,11.53
2022-09-20T23:31:36.413Z,11.53
2022-09-20T23:34:04.532Z,11.53
2022-09-20T23:36:32.457Z,11.52
2022-09-20T23:38:58.979Z,11.51
2022-09-20T23:41:26.791Z,11.48
2022-09-20T23:43:53.643Z,11.47
2022-09-20T23:46:21.461Z,11.46
2022-09-20T23:48:48.122Z,11.44
2022-09-20T23:51:16.781Z,11.44
2022-09-20T23:53:43.659Z,11.41
2022-09-20T23:56:11.108Z,11.39
2022-09-20T23:58:38.803Z,11.36
